Spring Lake Park, Minnesota
Current Conditions -  °F | °C
As of 8:45 PM on Saturday 25 Oct 2014 (Local Time) from KANE Reporting Station
Clear Clear  
Wind Chill: 46°   Ceiling: Unl
Heat Index: 48°   Visibility: 10mi
Dew Point: 28°   Wind: 6mph
Humidity: 46%   Direction: 270°W
Pressure: 30.04"   Gusts: NA
Location:  45.0968°N, 93.2542°W
Report Text: KANE 260145Z 27005KT 10SM SKC 09/M02 A3004
Loading
Personal Weather Stations






























Interactive Weather Map
Tropical Storm Tracking
New forecast layout! Learn more

10-Day Weather Forecast

Advertisements
Track Severe Weather on mobile